sensor_id;sensor_type;location;lat;lon;timestamp;temperature;humidity
21487;DHT22;10905;50.822;4.336;2023-03-01T00:02:07;2.40;99.90
21487;DHT22;10905;50.822;4.336;2023-03-01T00:04:33;2.40;99.90
21487;DHT22;10905;50.822;4.336;2023-03-01T00:07:01;2.30;99.90
21487;DHT22;10905;50.822;4.336;2023-03-01T00:09:26;2.30;99.90
21487;DHT22;10905;50.822;4.336;2023-03-01T00:11:52;2.30;99.90
21487;DHT22;10905;50.822;4.336;2023-03-01T00:14:18;2.30;99.90
21487;DHT22;10905;50.822;4.336;2023-03-01T00:16:44;2.30;99.90
21487;DHT22;10905;50.822;4.336;2023-03-01T00:19:14;2.30;99.90
21487;DHT22;10905;50.822;4.336;2023-03-01T00:21:40;2.30;99.90
21487;DHT22;10905;50.822;4.336;2023-03-01T00:24:06;2.20;99.90
21487;DHT22;10905;50.822;4.336;2023-03-01T00:26:33;2.20;99.90
21487;DHT22;10905;50.822;4.336;2023-03-01T00:28:59;2.20;99.90
21487;DHT22;10905;50.822;4.336;2023-03-01T00:31:30;2.20;99.90
21487;DHT22;10905;50.822;4.336;2023-03-01T00:33:57;2.20;99.90
21487;DHT22;10905;50.822;4.336;2023-03-01T00:36:28;2.20;99.90
21487;DHT22;10905;50.822;4.336;2023-03-01T00:38:55;2.20;99.90
21487;DHT22;10905;50.822;4.336;2023-03-01T00:41:21;2.10;99.90
21487;DHT22;10905;50.822;4.336;2023-03-01T00:43:51;2.00;99.90
21487;DHT22;10905;50.822;4.336;2023-03-01T00:46:21;2.00;99.90
21487;DHT22;10905;50.822;4.336;2023-03-01T00:48:47;2.00;99.90
21487;DHT22;10905;50.822;4.336;2023-03-01T00:51:24;1.90;99.90
21487;DHT22;10905;50.822;4.336;2023-03-01T00:53:55;1.90;99.90
21487;DHT22;10905;50.822;4.336;2023-03-01T00:56:22;1.90;99.90
21487;DHT22;10905;50.822;4.336;2023-03-01T00:58:48;1.90;99.90
21487;DHT22;10905;50.822;4.336;2023-03-01T01:01:15;1.90;99.90
21487;DHT22;10905;50.822;4.336;2023-03-01T01:04:05;1.90;99.90
21487;DHT22;10905;50.822;4.336;2023-03-01T01:06:34;1.80;99.90
21487;DHT22;10905;50.822;4.336;2023-03-01T01:09:01;1.70;99.90
21487;DHT22;10905;50.822;4.336;2023-03-01T01:11:29;1.80;99.90
21487;DHT22;10905;50.822;4.336;2023-03-01T01:13:55;1.80;99.90
21487;DHT22;10905;50.822;4.336;2023-03-01T01:16:23;1.80;99.90
21487;DHT22;10905;50.822;4.336;2023-03-01T01:18:50;1.70;99.90
21487;DHT22;10905;50.822;4.336;2023-03-01T01:21:18;1.80;99.90
21487;DHT22;10905;50.822;4.336;2023-03-01T01:23:46;1.80;99.90
21487;DHT22;10905;50.822;4.336;2023-03-01T01:26:28;1.80;99.90
21487;DHT22;10905;50.822;4.336;2023-03-01T01:28:55;1.70;99.90
21487;DHT22;10905;50.822;4.336;2023-03-01T01:31:21;1.70;99.90
21487;DHT22;10905;50.822;4.336;2023-03-01T01:33:51;1.80;99.90
21487;DHT22;10905;50.822;4.336;2023-03-01T01:36:17;1.70;99.90
21487;DHT22;10905;50.822;4.336;2023-03-01T01:38:44;1.70;99.90
21487;DHT22;10905;50.822;4.336;2023-03-01T01:41:10;1.70;99.90
21487;DHT22;10905;50.822;4.336;2023-03-01T01:43:46;1.70;99.90
21487;DHT22;10905;50.822;4.336;2023-03-01T01:46:32;1.60;99.90
21487;DHT22;10905;50.822;4.336;2023-03-01T01:49:17;1.60;99.90
21487;DHT22;10905;50.822;4.336;2023-03-01T01:51:47;1.60;99.90
21487;DHT22;10905;50.822;4.336;2023-03-01T01:54:23;1.60;99.90
21487;DHT22;10905;50.822;4.336;2023-03-01T01:56:55;1.60;99.90
21487;DHT22;10905;50.822;4.336;2023-03-01T01:59:23;1.80;99.90
21487;DHT22;10905;50.822;4.336;2023-03-01T02:01:51;1.80;99.90
21487;DHT22;10905;50.822;4.336;2023-03-01T02:04:17;1.80;99.90
21487;DHT22;10905;50.822;4.336;2023-03-01T02:06:54;1.70;99.90
21487;DHT22;10905;50.822;4.336;2023-03-01T02:09:23;1.60;99.90
21487;DHT22;10905;50.822;4.336;2023-03-01T02:11:50;1.60;99.90
21487;DHT22;10905;50.822;4.336;2023-03-01T02:14:16;1.50;99.90
21487;DHT22;10905;50.822;4.336;2023-03-01T02:16:42;1.50;99.90
21487;DHT22;10905;50.822;4.336;2023-03-01T02:19:13;1.50;99.90
21487;DHT22;10905;50.822;4.336;2023-03-01T02:21:58;1.60;99.90
21487;DHT22;10905;50.822;4.336;2023-03-01T02:27:17;1.50;99.90
21487;DHT22;10905;50.822;4.336;2023-03-01T02:29:43;1.40;99.90
21487;DHT22;10905;50.822;4.336;2023-03-01T02:32:10;1.30;99.90
21487;DHT22;10905;50.822;4.336;2023-03-01T02:34:38;1.40;99.90
21487;DHT22;10905;50.822;4.336;2023-03-01T02:37:14;1.40;99.90
21487;DHT22;10905;50.822;4.336;2023-03-01T02:39:48;1.50;99.90
21487;DHT22;10905;50.822;4.336;2023-03-01T02:42:21;1.50;99.90
21487;DHT22;10905;50.822;4.336;2023-03-01T02:44:50;1.50;99.90
21487;DHT22;10905;50.822;4.336;2023-03-01T02:47:15;1.50;99.90
21487;DHT22;10905;50.822;4.336;2023-03-01T02:49:41;1.30;99.90
21487;DHT22;10905;50.822;4.336;2023-03-01T02:55:15;1.20;99.90
21487;DHT22;10905;50.822;4.336;2023-03-01T02:57:44;1.20;99.90
21487;DHT22;10905;50.822;4.336;2023-03-01T03:00:18;1.20;99.90
21487;DHT22;10905;50.822;4.336;2023-03-01T03:02:46;1.10;99.90
21487;DHT22;10905;50.822;4.336;2023-03-01T03:05:15;1.20;99.90
21487;DHT22;10905;50.822;4.336;2023-03-01T03:07:42;1.20;99.90
21487;DHT22;10905;50.822;4.336;2023-03-01T03:10:18;1.20;99.90
21487;DHT22;10905;50.822;4.336;2023-03-01T03:12:56;1.20;99.90
21487;DHT22;10905;50.822;4.336;2023-03-01T03:15:22;1.10;99.90
21487;DHT22;10905;50.822;4.336;2023-03-01T03:17:50;1.20;99.90
21487;DHT22;10905;50.822;4.336;2023-03-01T03:20:17;1.10;99.90
21487;DHT22;10905;50.822;4.336;2023-03-01T03:22:48;1.10;99.90
21487;DHT22;10905;50.822;4.336;2023-03-01T03:25:15;1.20;99.90
21487;DHT22;10905;50.822;4.336;2023-03-01T03:27:43;1.20;99.90
21487;DHT22;10905;50.822;4.336;2023-03-01T03:30:15;1.20;99.90
21487;DHT22;10905;50.822;4.336;2023-03-01T03:32:42;1.10;99.90
21487;DHT22;10905;50.822;4.336;2023-03-01T03:35:15;0.90;99.90
21487;DHT22;10905;50.822;4.336;2023-03-01T03:37:41;1.00;99.90
21487;DHT22;10905;50.822;4.336;2023-03-01T03:40:27;0.90;99.90
21487;DHT22;10905;50.822;4.336;2023-03-01T03:42:53;1.00;99.90
21487;DHT22;10905;50.822;4.336;2023-03-01T03:45:19;1.00;99.90
21487;DHT22;10905;50.822;4.336;2023-03-01T03:47:44;0.90;99.90
21487;DHT22;10905;50.822;4.336;2023-03-01T03:50:12;0.90;99.90
21487;DHT22;10905;50.822;4.336;2023-03-01T03:52:38;1.00;99.90
21487;DHT22;10905;50.822;4.336;2023-03-01T03:55:06;0.80;99.90
21487;DHT22;10905;50.822;4.336;2023-03-01T03:57:37;0.80;99.90
21487;DHT22;10905;50.822;4.336;2023-03-01T04:00:04;0.70;99.90
21487;DHT22;10905;50.822;4.336;2023-03-01T04:02:30;0.70;99.90
21487;DHT22;10905;50.822;4.336;2023-03-01T04:04:56;0.80;99.90
21487;DHT22;10905;50.822;4.336;2023-03-01T04:07:22;0.80;99.90
21487;DHT22;10905;50.822;4.336;2023-03-01T04:09:47;0.80;99.90
21487;DHT22;10905;50.822;4.336;2023-03-01T04:12:13;0.70;99.90
21487;DHT22;10905;50.822;4.336;2023-03-01T04:14:38;0.70;99.90
21487;DHT22;10905;50.822;4.336;2023-03-01T04:17:05;0.80;99.90
21487;DHT22;10905;50.822;4.336;2023-03-01T04:19:31;0.70;99.90
21487;DHT22;10905;50.822;4.336;2023-03-01T04:22:04;0.80;99.90
21487;DHT22;10905;50.822;4.336;2023-03-01T04:24:35;0.70;99.90
21487;DHT22;10905;50.822;4.336;2023-03-01T04:27:02;0.60;99.90
21487;DHT22;10905;50.822;4.336;2023-03-01T04:29:28;0.70;99.90
21487;DHT22;10905;50.822;4.336;2023-03-01T04:31:55;0.60;99.90
21487;DHT22;10905;50.822;4.336;2023-03-01T04:34:21;0.70;99.90
21487;DHT22;10905;50.822;4.336;2023-03-01T04:36:47;0.60;99.90
21487;DHT22;10905;50.822;4.336;2023-03-01T04:39:13;0.60;99.90
21487;DHT22;10905;50.822;4.336;2023-03-01T04:41:39;0.70;99.90
21487;DHT22;10905;50.822;4.336;2023-03-01T04:44:06;0.60;99.90
21487;DHT22;10905;50.822;4.336;2023-03-01T04:46:32;0.50;99.90
21487;DHT22;10905;50.822;4.336;2023-03-01T04:48:58;0.50;99.90
21487;DHT22;10905;50.822;4.336;2023-03-01T04:51:24;0.50;99.90
21487;DHT22;10905;50.822;4.336;2023-03-01T04:53:51;0.50;99.90
21487;DHT22;10905;50.822;4.336;2023-03-01T04:56:17;0.50;99.90
21487;DHT22;10905;50.822;4.336;2023-03-01T04:58:48;0.60;99.90
21487;DHT22;10905;50.822;4.336;2023-03-01T05:01:18;0.50;99.90
21487;DHT22;10905;50.822;4.336;2023-03-01T05:03:47;0.50;99.90
21487;DHT22;10905;50.822;4.336;2023-03-01T05:06:13;0.50;99.90
21487;DHT22;10905;50.822;4.336;2023-03-01T05:08:40;0.50;99.90
21487;DHT22;10905;50.822;4.336;2023-03-01T05:11:07;0.40;99.90
21487;DHT22;10905;50.822;4.336;2023-03-01T05:13:35;0.40;99.90
21487;DHT22;10905;50.822;4.336;2023-03-01T05:16:02;0.40;99.90
21487;DHT22;10905;50.822;4.336;2023-03-01T05:18:30;0.30;99.90
21487;DHT22;10905;50.822;4.336;2023-03-01T05:21:06;0.30;99.90
21487;DHT22;10905;50.822;4.336;2023-03-01T05:23:33;0.30;99.90
21487;DHT22;10905;50.822;4.336;2023-03-01T05:26:00;0.30;99.90
21487;DHT22;10905;50.822;4.336;2023-03-01T05:28:26;0.30;99.90
21487;DHT22;10905;50.822;4.336;2023-03-01T05:30:53;0.30;99.90
21487;DHT22;10905;50.822;4.336;2023-03-01T05:33:20;0.30;99.90
21487;DHT22;10905;50.822;4.336;2023-03-01T05:35:49;0.20;99.90
21487;DHT22;10905;50.822;4.336;2023-03-01T05:38:20;0.20;99.90
21487;DHT22;10905;50.822;4.336;2023-03-01T05:40:47;0.30;99.90
21487;DHT22;10905;50.822;4.336;2023-03-01T05:43:15;0.20;99.90
21487;DHT22;10905;50.822;4.336;2023-03-01T05:45:43;0.10;99.90
21487;DHT22;10905;50.822;4.336;2023-03-01T05:48:10;0.10;99.90
21487;DHT22;10905;50.822;4.336;2023-03-01T05:50:44;0.10;99.90
21487;DHT22;10905;50.822;4.336;2023-03-01T05:53:15;0.10;99.90
21487;DHT22;10905;50.822;4.336;2023-03-01T05:55:42;0.20;99.90
21487;DHT22;10905;50.822;4.336;2023-03-01T05:58:14;0.10;99.90
21487;DHT22;10905;50.822;4.336;2023-03-01T06:00:42;0.10;99.90
21487;DHT22;10905;50.822;4.336;2023-03-01T06:03:12;0.10;99.90
21487;DHT22;10905;50.822;4.336;2023-03-01T06:05:40;0.20;99.90
21487;DHT22;10905;50.822;4.336;2023-03-01T06:08:08;0.10;99.90
21487;DHT22;10905;50.822;4.336;2023-03-01T06:10:34;0.10;99.90
21487;DHT22;10905;50.822;4.336;2023-03-01T06:13:00;0.10;99.90
21487;DHT22;10905;50.822;4.336;2023-03-01T06:15:28;0.00;99.90
21487;DHT22;10905;50.822;4.336;2023-03-01T06:17:56;0.00;99.90
21487;DHT22;10905;50.822;4.336;2023-03-01T06:20:26;0.00;99.90
21487;DHT22;10905;50.822;4.336;2023-03-01T06:22:53;0.00;99.90
21487;DHT22;10905;50.822;4.336;2023-03-01T06:25:22;0.10;99.90
21487;DHT22;10905;50.822;4.336;2023-03-01T06:27:52;0.10;99.90
21487;DHT22;10905;50.822;4.336;2023-03-01T06:30:19;0.10;99.90
21487;DHT22;10905;50.822;4.336;2023-03-01T06:32:49;0.10;99.90
21487;DHT22;10905;50.822;4.336;2023-03-01T06:35:19;0.20;99.90
21487;DHT22;10905;50.822;4.336;2023-03-01T06:37:46;0.20;99.90
21487;DHT22;10905;50.822;4.336;2023-03-01T06:40:17;0.20;99.90
21487;DHT22;10905;50.822;4.336;2023-03-01T06:42:50;0.20;99.90
21487;DHT22;10905;50.822;4.336;2023-03-01T06:45:19;0.30;99.90
21487;DHT22;10905;50.822;4.336;2023-03-01T06:47:45;0.30;99.90
21487;DHT22;10905;50.822;4.336;2023-03-01T06:50:17;0.30;99.90
21487;DHT22;10905;50.822;4.336;2023-03-01T06:52:45;0.30;99.90
21487;DHT22;10905;50.822;4.336;2023-03-01T06:55:11;0.30;99.90
21487;DHT22;10905;50.822;4.336;2023-03-01T06:57:58;0.30;99.90
21487;DHT22;10905;50.822;4.336;2023-03-01T07:00:26;0.30;99.90
21487;DHT22;10905;50.822;4.336;2023-03-01T07:02:53;0.40;99.90
21487;DHT22;10905;50.822;4.336;2023-03-01T07:05:24;0.40;99.90
21487;DHT22;10905;50.822;4.336;2023-03-01T07:07:49;0.50;99.90
21487;DHT22;10905;50.822;4.336;2023-03-01T07:10:16;0.60;99.90
21487;DHT22;10905;50.822;4.336;2023-03-01T07:12:43;0.50;99.90
21487;DHT22;10905;50.822;4.336;2023-03-01T07:15:11;0.60;99.90
21487;DHT22;10905;50.822;4.336;2023-03-01T07:17:41;0.60;99.90
21487;DHT22;10905;50.822;4.336;2023-03-01T07:20:10;0.70;99.90
21487;DHT22;10905;50.822;4.336;2023-03-01T07:22:40;0.60;99.90
21487;DHT22;10905;50.822;4.336;2023-03-01T07:25:09;0.60;99.90
21487;DHT22;10905;50.822;4.336;2023-03-01T07:27:35;0.60;99.90
21487;DHT22;10905;50.822;4.336;2023-03-01T07:30:03;0.70;99.90
21487;DHT22;10905;50.822;4.336;2023-03-01T07:32:36;0.70;99.90
21487;DHT22;10905;50.822;4.336;2023-03-01T07:35:16;0.60;99.90
21487;DHT22;10905;50.822;4.336;2023-03-01T07:37:57;0.70;99.90
21487;DHT22;10905;50.822;4.336;2023-03-01T07:40:26;0.70;99.90
21487;DHT22;10905;50.822;4.336;2023-03-01T07:42:59;0.70;99.90
21487;DHT22;10905;50.822;4.336;2023-03-01T07:45:25;0.80;99.90
21487;DHT22;10905;50.822;4.336;2023-03-01T07:47:52;0.80;99.90
21487;DHT22;10905;50.822;4.336;2023-03-01T07:50:18;0.80;99.90
21487;DHT22;10905;50.822;4.336;2023-03-01T07:52:48;0.90;99.90
21487;DHT22;10905;50.822;4.336;2023-03-01T07:55:15;0.90;99.90
21487;DHT22;10905;50.822;4.336;2023-03-01T07:57:41;1.00;99.90
21487;DHT22;10905;50.822;4.336;2023-03-01T08:00:09;1.10;99.90
21487;DHT22;10905;50.822;4.336;2023-03-01T08:02:35;1.10;99.90
21487;DHT22;10905;50.822;4.336;2023-03-01T08:05:01;1.10;99.90
21487;DHT22;10905;50.822;4.336;2023-03-01T08:07:26;1.10;99.90
21487;DHT22;10905;50.822;4.336;2023-03-01T08:09:52;1.20;99.90
21487;DHT22;10905;50.822;4.336;2023-03-01T08:12:18;1.20;99.90
21487;DHT22;10905;50.822;4.336;2023-03-01T08:14:43;1.20;99.90
21487;DHT22;10905;50.822;4.336;2023-03-01T08:17:09;1.30;99.90
21487;DHT22;10905;50.822;4.336;2023-03-01T08:19:48;1.20;99.90
21487;DHT22;10905;50.822;4.336;2023-03-01T08:22:16;1.30;99.90
21487;DHT22;10905;50.822;4.336;2023-03-01T08:24:44;1.40;99.90
21487;DHT22;10905;50.822;4.336;2023-03-01T08:27:15;1.40;99.90
21487;DHT22;10905;50.822;4.336;2023-03-01T08:29:46;1.30;99.90
21487;DHT22;10905;50.822;4.336;2023-03-01T08:32:35;1.40;99.90
21487;DHT22;10905;50.822;4.336;2023-03-01T08:35:03;1.40;99.90
21487;DHT22;10905;50.822;4.336;2023-03-01T08:37:31;1.40;99.90
21487;DHT22;10905;50.822;4.336;2023-03-01T08:40:00;1.50;99.90
21487;DHT22;10905;50.822;4.336;2023-03-01T08:42:28;1.60;99.90
21487;DHT22;10905;50.822;4.336;2023-03-01T08:44:56;1.70;99.90
21487;DHT22;10905;50.822;4.336;2023-03-01T08:47:46;1.80;99.90
21487;DHT22;10905;50.822;4.336;2023-03-01T08:50:15;1.90;99.90
21487;DHT22;10905;50.822;4.336;2023-03-01T08:52:41;1.90;99.90
21487;DHT22;10905;50.822;4.336;2023-03-01T08:55:17;1.80;99.90
21487;DHT22;10905;50.822;4.336;2023-03-01T08:57:45;1.90;99.90
21487;DHT22;10905;50.822;4.336;2023-03-01T09:00:16;1.90;99.90
21487;DHT22;10905;50.822;4.336;2023-03-01T09:02:55;1.90;99.90
21487;DHT22;10905;50.822;4.336;2023-03-01T09:05:30;2.00;99.90
21487;DHT22;10905;50.822;4.336;2023-03-01T09:07:58;2.10;99.90
21487;DHT22;10905;50.822;4.336;2023-03-01T09:10:25;2.10;99.90
21487;DHT22;10905;50.822;4.336;2023-03-01T09:12:57;2.20;99.90
21487;DHT22;10905;50.822;4.336;2023-03-01T09:15:30;2.20;99.90
21487;DHT22;10905;50.822;4.336;2023-03-01T09:17:57;2.20;99.90
21487;DHT22;10905;50.822;4.336;2023-03-01T09:20:24;2.10;99.90
21487;DHT22;10905;50.822;4.336;2023-03-01T09:22:57;2.10;99.90
21487;DHT22;10905;50.822;4.336;2023-03-01T09:25:26;2.10;99.90
21487;DHT22;10905;50.822;4.336;2023-03-01T09:27:52;2.10;99.90
21487;DHT22;10905;50.822;4.336;2023-03-01T09:30:21;2.20;99.90
21487;DHT22;10905;50.822;4.336;2023-03-01T09:32:50;2.30;99.90
21487;DHT22;10905;50.822;4.336;2023-03-01T09:35:21;2.30;99.90
21487;DHT22;10905;50.822;4.336;2023-03-01T09:37:48;2.40;99.90
21487;DHT22;10905;50.822;4.336;2023-03-01T09:40:21;2.60;99.90
21487;DHT22;10905;50.822;4.336;2023-03-01T09:45:49;2.60;99.90
21487;DHT22;10905;50.822;4.336;2023-03-01T09:48:21;2.70;99.90
21487;DHT22;10905;50.822;4.336;2023-03-01T09:50:49;2.80;99.90
21487;DHT22;10905;50.822;4.336;2023-03-01T09:53:22;2.90;99.90
21487;DHT22;10905;50.822;4.336;2023-03-01T09:56:03;2.90;99.90
21487;DHT22;10905;50.822;4.336;2023-03-01T10:06:54;3.00;99.90
21487;DHT22;10905;50.822;4.336;2023-03-01T10:09:21;3.10;99.90
21487;DHT22;10905;50.822;4.336;2023-03-01T10:11:52;3.20;99.90
21487;DHT22;10905;50.822;4.336;2023-03-01T10:17:39;3.30;99.90
21487;DHT22;10905;50.822;4.336;2023-03-01T10:22:51;3.40;99.90
21487;DHT22;10905;50.822;4.336;2023-03-01T10:29:05;3.60;99.90
21487;DHT22;10905;50.822;4.336;2023-03-01T10:31:45;3.60;99.90
21487;DHT22;10905;50.822;4.336;2023-03-01T10:34:39;3.70;99.90
21487;DHT22;10905;50.822;4.336;2023-03-01T10:37:18;3.80;99.90
21487;DHT22;10905;50.822;4.336;2023-03-01T10:40:09;3.80;99.90
21487;DHT22;10905;50.822;4.336;2023-03-01T10:42:58;4.00;99.90
21487;DHT22;10905;50.822;4.336;2023-03-01T10:48:18;4.10;99.90
21487;DHT22;10905;50.822;4.336;2023-03-01T10:51:06;4.10;99.90
21487;DHT22;10905;50.822;4.336;2023-03-01T10:53:42;4.00;99.90
21487;DHT22;10905;50.822;4.336;2023-03-01T10:56:09;4.10;99.90
21487;DHT22;10905;50.822;4.336;2023-03-01T10:58:39;4.10;99.90
21487;DHT22;10905;50.822;4.336;2023-03-01T11:03:43;4.20;99.90
21487;DHT22;10905;50.822;4.336;2023-03-01T11:08:45;4.30;99.90
21487;DHT22;10905;50.822;4.336;2023-03-01T11:11:35;4.40;99.90
21487;DHT22;10905;50.822;4.336;2023-03-01T11:14:17;4.60;99.90
21487;DHT22;10905;50.822;4.336;2023-03-01T11:16:48;4.60;99.90
21487;DHT22;10905;50.822;4.336;2023-03-01T11:19:21;4.70;99.90
21487;DHT22;10905;50.822;4.336;2023-03-01T11:22:18;4.70;99.90
21487;DHT22;10905;50.822;4.336;2023-03-01T11:25:10;4.80;99.90
21487;DHT22;10905;50.822;4.336;2023-03-01T11:27:43;4.80;99.90
21487;DHT22;10905;50.822;4.336;2023-03-01T11:30:48;4.80;99.90
21487;DHT22;10905;50.822;4.336;2023-03-01T11:38:48;4.90;99.90
21487;DHT22;10905;50.822;4.336;2023-03-01T11:41:26;5.00;99.90
21487;DHT22;10905;50.822;4.336;2023-03-01T11:47:09;5.10;99.90
21487;DHT22;10905;50.822;4.336;2023-03-01T11:50:04;5.20;99.90
21487;DHT22;10905;50.822;4.336;2023-03-01T12:07:05;5.50;99.90
21487;DHT22;10905;50.822;4.336;2023-03-01T12:10:07;5.70;99.90
21487;DHT22;10905;50.822;4.336;2023-03-01T12:38:39;5.70;99.90
21487;DHT22;10905;50.822;4.336;2023-03-01T12:49:25;5.90;99.90
21487;DHT22;10905;50.822;4.336;2023-03-01T12:51:58;6.00;99.90
21487;DHT22;10905;50.822;4.336;2023-03-01T12:54:31;5.90;99.90
21487;DHT22;10905;50.822;4.336;2023-03-01T12:56:57;6.00;99.90
21487;DHT22;10905;50.822;4.336;2023-03-01T12:59:51;6.10;99.90
21487;DHT22;10905;50.822;4.336;2023-03-01T13:02:48;6.10;99.90
21487;DHT22;10905;50.822;4.336;2023-03-01T13:05:39;6.20;99.90
21487;DHT22;10905;50.822;4.336;2023-03-01T13:08:33;6.30;99.90
21487;DHT22;10905;50.822;4.336;2023-03-01T13:11:22;6.30;99.90
21487;DHT22;10905;50.822;4.336;2023-03-01T13:16:55;6.20;99.90
21487;DHT22;10905;50.822;4.336;2023-03-01T13:19:21;6.30;99.90
21487;DHT22;10905;50.822;4.336;2023-03-01T13:21:49;6.20;99.90
21487;DHT22;10905;50.822;4.336;2023-03-01T13:29:58;6.50;99.90
21487;DHT22;10905;50.822;4.336;2023-03-01T13:32:35;6.60;99.90
21487;DHT22;10905;50.822;4.336;2023-03-01T13:37:40;6.50;99.90
21487;DHT22;10905;50.822;4.336;2023-03-01T13:42:44;6.40;99.90
21487;DHT22;10905;50.822;4.336;2023-03-01T13:48:08;6.50;99.90
21487;DHT22;10905;50.822;4.336;2023-03-01T13:50:43;6.60;99.90
21487;DHT22;10905;50.822;4.336;2023-03-01T13:53:16;6.70;99.90
21487;DHT22;10905;50.822;4.336;2023-03-01T13:55:45;6.70;99.90
21487;DHT22;10905;50.822;4.336;2023-03-01T14:01:04;6.70;99.90
21487;DHT22;10905;50.822;4.336;2023-03-01T14:03:32;6.80;99.90
21487;DHT22;10905;50.822;4.336;2023-03-01T14:06:12;6.70;99.90
21487;DHT22;10905;50.822;4.336;2023-03-01T14:08:38;6.70;99.90
21487;DHT22;10905;50.822;4.336;2023-03-01T14:17:16;6.70;99.90
21487;DHT22;10905;50.822;4.336;2023-03-01T14:19:27;6.70;99.90
21487;DHT22;10905;50.822;4.336;2023-03-01T14:22:27;6.70;99.90
21487;DHT22;10905;50.822;4.336;2023-03-01T14:24:57;6.90;99.90
21487;DHT22;10905;50.822;4.336;2023-03-01T14:27:27;6.80;99.90
21487;DHT22;10905;50.822;4.336;2023-03-01T14:30:02;6.90;99.90
21487;DHT22;10905;50.822;4.336;2023-03-01T14:32:32;6.90;99.90
21487;DHT22;10905;50.822;4.336;2023-03-01T14:35:02;6.90;99.90
21487;DHT22;10905;50.822;4.336;2023-03-01T14:37:32;6.80;99.90
21487;DHT22;10905;50.822;4.336;2023-03-01T14:40:00;6.70;99.90
21487;DHT22;10905;50.822;4.336;2023-03-01T14:42:34;6.80;99.90
21487;DHT22;10905;50.822;4.336;2023-03-01T14:45:01;6.80;99.90
21487;DHT22;10905;50.822;4.336;2023-03-01T14:47:35;6.80;99.90
21487;DHT22;10905;50.822;4.336;2023-03-01T14:52:52;6.80;99.90
21487;DHT22;10905;50.822;4.336;2023-03-01T14:55:37;6.80;99.90
21487;DHT22;10905;50.822;4.336;2023-03-01T14:58:12;6.80;99.90
21487;DHT22;10905;50.822;4.336;2023-03-01T15:00:39;6.90;99.90
21487;DHT22;10905;50.822;4.336;2023-03-01T15:03:25;7.10;99.90
21487;DHT22;10905;50.822;4.336;2023-03-01T15:05:51;7.00;99.90
21487;DHT22;10905;50.822;4.336;2023-03-01T15:08:21;7.10;99.90
21487;DHT22;10905;50.822;4.336;2023-03-01T15:13:40;7.00;99.90
21487;DHT22;10905;50.822;4.336;2023-03-01T15:16:13;7.00;99.90
21487;DHT22;10905;50.822;4.336;2023-03-01T15:18:46;7.10;99.90
21487;DHT22;10905;50.822;4.336;2023-03-01T15:21:18;7.10;99.90
21487;DHT22;10905;50.822;4.336;2023-03-01T15:23:59;7.20;99.90
21487;DHT22;10905;50.822;4.336;2023-03-01T15:26:37;7.20;99.90
21487;DHT22;10905;50.822;4.336;2023-03-01T15:29:04;7.20;99.90
21487;DHT22;10905;50.822;4.336;2023-03-01T15:31:42;7.20;99.90
21487;DHT22;10905;50.822;4.336;2023-03-01T15:34:28;7.20;99.90
21487;DHT22;10905;50.822;4.336;2023-03-01T15:36:55;7.20;99.90
21487;DHT22;10905;50.822;4.336;2023-03-01T15:39:36;7.10;99.90
21487;DHT22;10905;50.822;4.336;2023-03-01T15:48:15;7.20;99.90
21487;DHT22;10905;50.822;4.336;2023-03-01T15:50:39;7.10;99.90
21487;DHT22;10905;50.822;4.336;2023-03-01T15:53:10;7.10;99.90
21487;DHT22;10905;50.822;4.336;2023-03-01T15:55:36;7.10;99.90
21487;DHT22;10905;50.822;4.336;2023-03-01T15:58:20;7.00;99.90
21487;DHT22;10905;50.822;4.336;2023-03-01T16:00:48;7.00;99.90
21487;DHT22;10905;50.822;4.336;2023-03-01T16:03:16;7.00;99.90
21487;DHT22;10905;50.822;4.336;2023-03-01T16:05:47;7.10;99.90
21487;DHT22;10905;50.822;4.336;2023-03-01T16:08:14;7.10;99.90
21487;DHT22;10905;50.822;4.336;2023-03-01T16:10:41;7.10;99.90
21487;DHT22;10905;50.822;4.336;2023-03-01T16:13:09;7.10;99.90
21487;DHT22;10905;50.822;4.336;2023-03-01T16:15:35;7.00;99.90
21487;DHT22;10905;50.822;4.336;2023-03-01T16:18:01;7.00;99.90
21487;DHT22;10905;50.822;4.336;2023-03-01T16:20:29;7.00;99.90
21487;DHT22;10905;50.822;4.336;2023-03-01T16:22:58;7.00;99.90
21487;DHT22;10905;50.822;4.336;2023-03-01T16:25:25;6.90;99.90
21487;DHT22;10905;50.822;4.336;2023-03-01T16:27:51;7.00;99.90
21487;DHT22;10905;50.822;4.336;2023-03-01T16:30:20;6.90;99.90
21487;DHT22;10905;50.822;4.336;2023-03-01T16:32:47;6.90;99.90
21487;DHT22;10905;50.822;4.336;2023-03-01T16:35:16;6.90;99.90
21487;DHT22;10905;50.822;4.336;2023-03-01T16:37:43;6.90;99.90
21487;DHT22;10905;50.822;4.336;2023-03-01T16:40:20;6.90;99.90
21487;DHT22;10905;50.822;4.336;2023-03-01T16:42:50;6.80;99.90
21487;DHT22;10905;50.822;4.336;2023-03-01T16:45:17;6.70;99.90
21487;DHT22;10905;50.822;4.336;2023-03-01T16:47:44;6.60;99.90
21487;DHT22;10905;50.822;4.336;2023-03-01T16:50:17;6.60;99.90
21487;DHT22;10905;50.822;4.336;2023-03-01T16:52:49;6.60;99.90
21487;DHT22;10905;50.822;4.336;2023-03-01T16:55:18;6.60;99.90
21487;DHT22;10905;50.822;4.336;2023-03-01T16:57:48;6.60;99.90
21487;DHT22;10905;50.822;4.336;2023-03-01T17:00:19;6.60;99.90
21487;DHT22;10905;50.822;4.336;2023-03-01T17:02:50;6.60;99.90
21487;DHT22;10905;50.822;4.336;2023-03-01T17:05:26;6.60;99.90
21487;DHT22;10905;50.822;4.336;2023-03-01T17:07:56;6.60;99.90
21487;DHT22;10905;50.822;4.336;2023-03-01T17:10:26;6.50;99.90
21487;DHT22;10905;50.822;4.336;2023-03-01T17:12:54;6.50;99.90
21487;DHT22;10905;50.822;4.336;2023-03-01T17:15:22;6.30;99.90
21487;DHT22;10905;50.822;4.336;2023-03-01T17:17:50;6.20;99.90
21487;DHT22;10905;50.822;4.336;2023-03-01T17:20:17;6.20;99.90
21487;DHT22;10905;50.822;4.336;2023-03-01T17:22:56;6.10;99.90
21487;DHT22;10905;50.822;4.336;2023-03-01T17:25:23;6.10;99.90
21487;DHT22;10905;50.822;4.336;2023-03-01T17:27:53;6.10;99.90
21487;DHT22;10905;50.822;4.336;2023-03-01T17:30:21;6.10;99.90
21487;DHT22;10905;50.822;4.336;2023-03-01T17:32:49;6.00;99.90
21487;DHT22;10905;50.822;4.336;2023-03-01T17:35:19;6.00;99.90
21487;DHT22;10905;50.822;4.336;2023-03-01T17:37:53;6.00;99.90
21487;DHT22;10905;50.822;4.336;2023-03-01T17:40:22;6.00;99.90
21487;DHT22;10905;50.822;4.336;2023-03-01T17:42:49;6.00;99.90
21487;DHT22;10905;50.822;4.336;2023-03-01T17:45:23;5.90;99.90
21487;DHT22;10905;50.822;4.336;2023-03-01T17:47:51;5.90;99.90
21487;DHT22;10905;50.822;4.336;2023-03-01T17:50:24;5.90;99.90
21487;DHT22;10905;50.822;4.336;2023-03-01T17:52:51;5.90;99.90
21487;DHT22;10905;50.822;4.336;2023-03-01T17:55:23;5.90;99.90
21487;DHT22;10905;50.822;4.336;2023-03-01T17:57:51;5.90;99.90
21487;DHT22;10905;50.822;4.336;2023-03-01T18:00:25;5.90;99.90
21487;DHT22;10905;50.822;4.336;2023-03-01T18:02:52;5.80;99.90
21487;DHT22;10905;50.822;4.336;2023-03-01T18:05:21;5.80;99.90
21487;DHT22;10905;50.822;4.336;2023-03-01T18:08:11;5.90;99.90
21487;DHT22;10905;50.822;4.336;2023-03-01T18:10:46;5.80;99.90
21487;DHT22;10905;50.822;4.336;2023-03-01T18:13:12;5.70;99.90
21487;DHT22;10905;50.822;4.336;2023-03-01T18:15:46;5.70;99.90
21487;DHT22;10905;50.822;4.336;2023-03-01T18:18:12;5.70;99.90